ホーチミン の空港の天気 - METARとTAF

タンソンニャット国際空港 (ホーチミン) ( VVTS / SGN ) - ベトナム ホーチミン市
飛行場実況気象(Metar)
観測時間02/18 06:00 ICT (02/17 23:00 UTC)
風向・風速東南東 3m/s
視程10km以上
天気現象
少しの雲 雲底高度 520m
気温25℃
湿度94%
気圧1011hPa
METARVVTS 172300Z 12006KT 9999 FEW017 25/24 Q1011 NOSIG
過去の天気等 Google飛行場航空写真 Wunderground天気予報

過去48時間のMETAR

飛行場予報(TAF)
発表時間: 2/18 00:00 ICT (2/17 17:00 UTC)
予報対象時間: 18日1時 ICT ~ 19日7時 ICT
風向・風速南東 4m/s
視程10km以上
全天の4割程度の雲 雲底高度 520m
TAF VVTS 171700Z 1718/1824 14008KT 9999 SCT017